sensor_id;sensor_type;location;lat;lon;timestamp;temperature;humidity
57390;DHT22;43217;52.694;6.214;2023-04-26T00:01:22;5.00;99.90
57390;DHT22;43217;52.694;6.214;2023-04-26T00:03:47;5.00;99.90
57390;DHT22;43217;52.694;6.214;2023-04-26T00:06:14;4.90;99.90
57390;DHT22;43217;52.694;6.214;2023-04-26T00:08:41;4.90;99.90
57390;DHT22;43217;52.694;6.214;2023-04-26T00:11:07;4.90;99.90
57390;DHT22;43217;52.694;6.214;2023-04-26T00:13:33;4.90;99.90
57390;DHT22;43217;52.694;6.214;2023-04-26T00:15:58;4.90;99.90
57390;DHT22;43217;52.694;6.214;2023-04-26T00:18:24;4.90;99.90
57390;DHT22;43217;52.694;6.214;2023-04-26T00:20:51;4.90;99.90
57390;DHT22;43217;52.694;6.214;2023-04-26T00:23:16;4.90;99.90
57390;DHT22;43217;52.694;6.214;2023-04-26T00:25:42;5.00;99.90
57390;DHT22;43217;52.694;6.214;2023-04-26T00:28:08;5.00;99.90
57390;DHT22;43217;52.694;6.214;2023-04-26T00:30:34;5.10;99.90
57390;DHT22;43217;52.694;6.214;2023-04-26T00:33:02;5.10;99.90
57390;DHT22;43217;52.694;6.214;2023-04-26T00:35:28;5.20;99.90
57390;DHT22;43217;52.694;6.214;2023-04-26T00:37:53;5.20;99.90
57390;DHT22;43217;52.694;6.214;2023-04-26T00:40:19;5.20;99.90
57390;DHT22;43217;52.694;6.214;2023-04-26T00:42:45;5.30;99.90
57390;DHT22;43217;52.694;6.214;2023-04-26T00:45:10;5.30;99.90
57390;DHT22;43217;52.694;6.214;2023-04-26T00:47:36;5.30;99.90
57390;DHT22;43217;52.694;6.214;2023-04-26T00:50:02;5.30;99.90
57390;DHT22;43217;52.694;6.214;2023-04-26T00:52:29;5.40;99.90
57390;DHT22;43217;52.694;6.214;2023-04-26T00:54:56;5.30;99.90
57390;DHT22;43217;52.694;6.214;2023-04-26T00:57:22;5.40;99.90
57390;DHT22;43217;52.694;6.214;2023-04-26T00:59:48;5.30;99.90
57390;DHT22;43217;52.694;6.214;2023-04-26T01:02:13;5.30;99.90
57390;DHT22;43217;52.694;6.214;2023-04-26T01:04:40;5.30;99.90
57390;DHT22;43217;52.694;6.214;2023-04-26T01:07:06;5.30;99.90
57390;DHT22;43217;52.694;6.214;2023-04-26T01:09:33;5.30;99.90
57390;DHT22;43217;52.694;6.214;2023-04-26T01:12:01;5.30;99.90
57390;DHT22;43217;52.694;6.214;2023-04-26T01:14:28;5.30;99.90
57390;DHT22;43217;52.694;6.214;2023-04-26T01:16:55;5.30;99.90
57390;DHT22;43217;52.694;6.214;2023-04-26T01:19:21;5.20;99.90
57390;DHT22;43217;52.694;6.214;2023-04-26T01:21:47;5.20;99.90
57390;DHT22;43217;52.694;6.214;2023-04-26T01:24:13;5.20;99.90
57390;DHT22;43217;52.694;6.214;2023-04-26T01:26:40;5.10;99.90
57390;DHT22;43217;52.694;6.214;2023-04-26T01:29:18;5.10;99.90
57390;DHT22;43217;52.694;6.214;2023-04-26T01:31:44;5.00;99.90
57390;DHT22;43217;52.694;6.214;2023-04-26T01:34:10;4.90;99.90
57390;DHT22;43217;52.694;6.214;2023-04-26T01:36:36;4.90;99.90
57390;DHT22;43217;52.694;6.214;2023-04-26T01:39:02;4.80;99.90
57390;DHT22;43217;52.694;6.214;2023-04-26T01:41:28;4.80;99.90
57390;DHT22;43217;52.694;6.214;2023-04-26T01:43:54;4.70;99.90
57390;DHT22;43217;52.694;6.214;2023-04-26T01:46:20;4.70;99.90
57390;DHT22;43217;52.694;6.214;2023-04-26T01:48:46;4.70;99.90
57390;DHT22;43217;52.694;6.214;2023-04-26T01:51:12;4.60;99.90
57390;DHT22;43217;52.694;6.214;2023-04-26T01:53:37;4.60;99.90
57390;DHT22;43217;52.694;6.214;2023-04-26T01:56:03;4.60;99.90
57390;DHT22;43217;52.694;6.214;2023-04-26T01:58:30;4.50;99.90
57390;DHT22;43217;52.694;6.214;2023-04-26T02:01:03;4.50;99.90
57390;DHT22;43217;52.694;6.214;2023-04-26T02:03:30;4.40;99.90
57390;DHT22;43217;52.694;6.214;2023-04-26T02:05:55;4.40;99.90
57390;DHT22;43217;52.694;6.214;2023-04-26T02:08:22;4.30;99.90
57390;DHT22;43217;52.694;6.214;2023-04-26T02:10:48;4.20;99.90
57390;DHT22;43217;52.694;6.214;2023-04-26T02:13:14;4.10;99.90
57390;DHT22;43217;52.694;6.214;2023-04-26T02:15:39;4.10;99.90
57390;DHT22;43217;52.694;6.214;2023-04-26T02:18:06;4.10;99.90
57390;DHT22;43217;52.694;6.214;2023-04-26T02:20:32;4.10;99.90
57390;DHT22;43217;52.694;6.214;2023-04-26T02:22:57;4.10;99.90
57390;DHT22;43217;52.694;6.214;2023-04-26T02:25:23;4.10;99.90
57390;DHT22;43217;52.694;6.214;2023-04-26T02:27:49;4.00;99.90
57390;DHT22;43217;52.694;6.214;2023-04-26T02:30:16;4.00;99.90
57390;DHT22;43217;52.694;6.214;2023-04-26T02:32:42;4.00;99.90
57390;DHT22;43217;52.694;6.214;2023-04-26T02:35:07;3.90;99.90
57390;DHT22;43217;52.694;6.214;2023-04-26T02:37:33;3.90;99.90
57390;DHT22;43217;52.694;6.214;2023-04-26T02:39:59;3.90;99.90
57390;DHT22;43217;52.694;6.214;2023-04-26T02:42:25;3.80;99.90
57390;DHT22;43217;52.694;6.214;2023-04-26T02:44:51;3.70;99.90
57390;DHT22;43217;52.694;6.214;2023-04-26T02:47:17;3.70;99.90
57390;DHT22;43217;52.694;6.214;2023-04-26T02:49:43;3.60;99.90
57390;DHT22;43217;52.694;6.214;2023-04-26T02:52:08;3.60;99.90
57390;DHT22;43217;52.694;6.214;2023-04-26T02:54:34;3.50;99.90
57390;DHT22;43217;52.694;6.214;2023-04-26T02:56:59;3.50;99.90
57390;DHT22;43217;52.694;6.214;2023-04-26T02:59:26;3.50;99.90
57390;DHT22;43217;52.694;6.214;2023-04-26T03:01:51;3.50;99.90
57390;DHT22;43217;52.694;6.214;2023-04-26T03:04:17;3.60;99.90
57390;DHT22;43217;52.694;6.214;2023-04-26T03:06:42;3.70;99.90
57390;DHT22;43217;52.694;6.214;2023-04-26T03:09:08;3.70;99.90
57390;DHT22;43217;52.694;6.214;2023-04-26T03:11:34;3.80;99.90
57390;DHT22;43217;52.694;6.214;2023-04-26T03:13:59;3.90;99.90
57390;DHT22;43217;52.694;6.214;2023-04-26T03:16:27;4.00;99.90
57390;DHT22;43217;52.694;6.214;2023-04-26T03:18:52;4.10;99.90
57390;DHT22;43217;52.694;6.214;2023-04-26T03:21:19;4.20;99.90
57390;DHT22;43217;52.694;6.214;2023-04-26T03:23:44;4.30;99.90
57390;DHT22;43217;52.694;6.214;2023-04-26T03:26:11;4.40;99.90
57390;DHT22;43217;52.694;6.214;2023-04-26T03:28:36;4.50;99.90
57390;DHT22;43217;52.694;6.214;2023-04-26T03:31:02;4.50;99.90
57390;DHT22;43217;52.694;6.214;2023-04-26T03:33:29;4.50;99.90
57390;DHT22;43217;52.694;6.214;2023-04-26T03:35:55;4.60;99.90
57390;DHT22;43217;52.694;6.214;2023-04-26T03:38:21;4.60;99.90
57390;DHT22;43217;52.694;6.214;2023-04-26T03:40:48;4.60;99.90
57390;DHT22;43217;52.694;6.214;2023-04-26T03:43:13;4.60;99.90
57390;DHT22;43217;52.694;6.214;2023-04-26T03:45:39;4.60;99.90
57390;DHT22;43217;52.694;6.214;2023-04-26T03:48:05;4.70;99.90
57390;DHT22;43217;52.694;6.214;2023-04-26T03:50:31;4.70;99.90
57390;DHT22;43217;52.694;6.214;2023-04-26T03:52:56;4.80;99.90
57390;DHT22;43217;52.694;6.214;2023-04-26T03:55:22;4.90;99.90
57390;DHT22;43217;52.694;6.214;2023-04-26T03:57:48;4.90;99.90
57390;DHT22;43217;52.694;6.214;2023-04-26T04:00:14;5.00;99.90
57390;DHT22;43217;52.694;6.214;2023-04-26T04:02:40;5.00;99.90
57390;DHT22;43217;52.694;6.214;2023-04-26T04:05:06;5.10;99.90
57390;DHT22;43217;52.694;6.214;2023-04-26T04:07:32;5.10;99.90
57390;DHT22;43217;52.694;6.214;2023-04-26T04:09:59;5.10;99.90
57390;DHT22;43217;52.694;6.214;2023-04-26T04:12:25;5.20;99.90
57390;DHT22;43217;52.694;6.214;2023-04-26T04:14:50;5.20;99.90
57390;DHT22;43217;52.694;6.214;2023-04-26T04:17:17;5.20;99.90
57390;DHT22;43217;52.694;6.214;2023-04-26T04:19:43;5.20;99.90
57390;DHT22;43217;52.694;6.214;2023-04-26T04:22:10;5.20;99.90
57390;DHT22;43217;52.694;6.214;2023-04-26T04:24:35;5.20;99.90
57390;DHT22;43217;52.694;6.214;2023-04-26T04:27:02;5.10;99.90
57390;DHT22;43217;52.694;6.214;2023-04-26T04:29:28;5.10;99.90
57390;DHT22;43217;52.694;6.214;2023-04-26T04:31:54;5.00;99.90
57390;DHT22;43217;52.694;6.214;2023-04-26T04:34:20;4.90;99.90
57390;DHT22;43217;52.694;6.214;2023-04-26T04:36:45;4.90;99.90
57390;DHT22;43217;52.694;6.214;2023-04-26T04:39:11;4.80;99.90
57390;DHT22;43217;52.694;6.214;2023-04-26T04:41:41;4.60;99.90
57390;DHT22;43217;52.694;6.214;2023-04-26T04:44:16;4.50;99.90
57390;DHT22;43217;52.694;6.214;2023-04-26T04:46:42;4.40;99.90
57390;DHT22;43217;52.694;6.214;2023-04-26T04:49:08;4.40;99.90
57390;DHT22;43217;52.694;6.214;2023-04-26T04:51:34;4.40;99.90
57390;DHT22;43217;52.694;6.214;2023-04-26T04:54:11;4.40;99.90
57390;DHT22;43217;52.694;6.214;2023-04-26T04:56:37;4.60;99.90
57390;DHT22;43217;52.694;6.214;2023-04-26T04:59:03;4.80;99.90
57390;DHT22;43217;52.694;6.214;2023-04-26T05:01:30;4.90;99.90
57390;DHT22;43217;52.694;6.214;2023-04-26T05:03:59;4.90;99.90
57390;DHT22;43217;52.694;6.214;2023-04-26T05:06:26;5.10;99.90
57390;DHT22;43217;52.694;6.214;2023-04-26T05:08:53;5.50;99.90
57390;DHT22;43217;52.694;6.214;2023-04-26T05:11:19;5.90;99.90
57390;DHT22;43217;52.694;6.214;2023-04-26T05:13:45;6.00;99.90
57390;DHT22;43217;52.694;6.214;2023-04-26T05:16:11;6.00;99.90
57390;DHT22;43217;52.694;6.214;2023-04-26T05:18:37;6.20;99.90
57390;DHT22;43217;52.694;6.214;2023-04-26T05:21:02;6.60;99.90
57390;DHT22;43217;52.694;6.214;2023-04-26T05:23:28;7.10;99.90
57390;DHT22;43217;52.694;6.214;2023-04-26T05:25:54;7.20;99.90
57390;DHT22;43217;52.694;6.214;2023-04-26T05:28:19;7.10;99.90
57390;DHT22;43217;52.694;6.214;2023-04-26T05:30:45;7.00;99.90
57390;DHT22;43217;52.694;6.214;2023-04-26T05:33:11;6.90;99.90
57390;DHT22;43217;52.694;6.214;2023-04-26T05:35:38;6.80;99.90
57390;DHT22;43217;52.694;6.214;2023-04-26T05:38:03;6.80;99.90
57390;DHT22;43217;52.694;6.214;2023-04-26T05:40:29;6.80;99.90
57390;DHT22;43217;52.694;6.214;2023-04-26T05:42:56;6.80;99.90
57390;DHT22;43217;52.694;6.214;2023-04-26T05:45:21;6.80;99.90
57390;DHT22;43217;52.694;6.214;2023-04-26T05:47:47;6.80;99.90
57390;DHT22;43217;52.694;6.214;2023-04-26T05:50:13;6.70;99.90
57390;DHT22;43217;52.694;6.214;2023-04-26T05:52:39;6.70;99.90
57390;DHT22;43217;52.694;6.214;2023-04-26T05:55:05;6.60;99.90
57390;DHT22;43217;52.694;6.214;2023-04-26T05:57:31;6.60;99.90
57390;DHT22;43217;52.694;6.214;2023-04-26T05:59:56;6.60;99.90
57390;DHT22;43217;52.694;6.214;2023-04-26T06:02:22;6.60;99.90
57390;DHT22;43217;52.694;6.214;2023-04-26T06:04:48;6.70;99.90
57390;DHT22;43217;52.694;6.214;2023-04-26T06:07:14;6.70;99.90
57390;DHT22;43217;52.694;6.214;2023-04-26T06:09:41;6.80;99.90
57390;DHT22;43217;52.694;6.214;2023-04-26T06:12:07;6.90;99.90
57390;DHT22;43217;52.694;6.214;2023-04-26T06:14:32;7.10;99.90
57390;DHT22;43217;52.694;6.214;2023-04-26T06:16:58;7.20;99.90
57390;DHT22;43217;52.694;6.214;2023-04-26T06:19:24;7.40;99.90
57390;DHT22;43217;52.694;6.214;2023-04-26T06:21:49;7.50;99.90
57390;DHT22;43217;52.694;6.214;2023-04-26T06:24:19;7.60;99.90
57390;DHT22;43217;52.694;6.214;2023-04-26T06:26:45;7.60;99.90
57390;DHT22;43217;52.694;6.214;2023-04-26T06:29:12;7.50;99.90
57390;DHT22;43217;52.694;6.214;2023-04-26T06:31:38;7.50;99.90
57390;DHT22;43217;52.694;6.214;2023-04-26T06:34:03;7.40;99.90
57390;DHT22;43217;52.694;6.214;2023-04-26T06:36:29;7.40;99.90
57390;DHT22;43217;52.694;6.214;2023-04-26T06:38:55;7.40;99.90
57390;DHT22;43217;52.694;6.214;2023-04-26T06:41:21;7.40;99.90
57390;DHT22;43217;52.694;6.214;2023-04-26T06:43:49;7.50;99.90
57390;DHT22;43217;52.694;6.214;2023-04-26T06:46:14;7.50;99.90
57390;DHT22;43217;52.694;6.214;2023-04-26T06:48:40;7.50;99.90
57390;DHT22;43217;52.694;6.214;2023-04-26T06:51:06;7.50;99.90
57390;DHT22;43217;52.694;6.214;2023-04-26T06:53:32;7.60;99.90
57390;DHT22;43217;52.694;6.214;2023-04-26T06:55:58;7.70;99.90
57390;DHT22;43217;52.694;6.214;2023-04-26T06:58:23;7.80;99.90
57390;DHT22;43217;52.694;6.214;2023-04-26T07:00:49;7.80;99.90
57390;DHT22;43217;52.694;6.214;2023-04-26T07:03:15;7.90;99.90
57390;DHT22;43217;52.694;6.214;2023-04-26T07:05:42;7.90;99.90
57390;DHT22;43217;52.694;6.214;2023-04-26T07:08:07;8.00;99.90
57390;DHT22;43217;52.694;6.214;2023-04-26T07:10:33;8.00;99.90
57390;DHT22;43217;52.694;6.214;2023-04-26T07:12:59;8.10;99.90
57390;DHT22;43217;52.694;6.214;2023-04-26T07:15:25;8.10;99.90
57390;DHT22;43217;52.694;6.214;2023-04-26T07:17:51;8.10;99.90
57390;DHT22;43217;52.694;6.214;2023-04-26T07:20:16;8.20;99.90
57390;DHT22;43217;52.694;6.214;2023-04-26T07:22:45;8.20;99.90
57390;DHT22;43217;52.694;6.214;2023-04-26T07:25:11;8.30;99.90
57390;DHT22;43217;52.694;6.214;2023-04-26T07:27:37;8.60;99.90
57390;DHT22;43217;52.694;6.214;2023-04-26T07:30:03;9.00;99.90
57390;DHT22;43217;52.694;6.214;2023-04-26T07:32:29;9.60;99.90
57390;DHT22;43217;52.694;6.214;2023-04-26T07:34:55;10.60;99.90
57390;DHT22;43217;52.694;6.214;2023-04-26T07:37:21;11.40;99.90
57390;DHT22;43217;52.694;6.214;2023-04-26T07:39:47;11.70;99.90
57390;DHT22;43217;52.694;6.214;2023-04-26T07:42:13;11.70;99.90
57390;DHT22;43217;52.694;6.214;2023-04-26T07:44:39;11.40;99.90
57390;DHT22;43217;52.694;6.214;2023-04-26T07:47:11;11.10;99.90
57390;DHT22;43217;52.694;6.214;2023-04-26T07:49:36;10.90;99.90
57390;DHT22;43217;52.694;6.214;2023-04-26T07:52:02;10.60;99.90
57390;DHT22;43217;52.694;6.214;2023-04-26T07:54:28;10.50;99.90
57390;DHT22;43217;52.694;6.214;2023-04-26T07:56:53;10.20;99.90
57390;DHT22;43217;52.694;6.214;2023-04-26T07:59:21;10.10;99.90
57390;DHT22;43217;52.694;6.214;2023-04-26T08:01:47;10.10;99.90
57390;DHT22;43217;52.694;6.214;2023-04-26T08:04:13;10.00;99.90
57390;DHT22;43217;52.694;6.214;2023-04-26T08:06:39;10.00;99.90
57390;DHT22;43217;52.694;6.214;2023-04-26T08:09:09;9.90;99.90
57390;DHT22;43217;52.694;6.214;2023-04-26T08:11:35;10.00;99.90
57390;DHT22;43217;52.694;6.214;2023-04-26T08:14:01;10.00;99.90
57390;DHT22;43217;52.694;6.214;2023-04-26T08:16:27;10.10;99.90
57390;DHT22;43217;52.694;6.214;2023-04-26T08:18:52;10.00;99.90
57390;DHT22;43217;52.694;6.214;2023-04-26T08:21:19;10.10;99.90
57390;DHT22;43217;52.694;6.214;2023-04-26T08:23:45;10.10;99.90
57390;DHT22;43217;52.694;6.214;2023-04-26T08:26:11;10.10;99.90
57390;DHT22;43217;52.694;6.214;2023-04-26T08:28:37;10.10;99.90
57390;DHT22;43217;52.694;6.214;2023-04-26T08:31:03;10.10;99.90
57390;DHT22;43217;52.694;6.214;2023-04-26T08:33:29;10.20;99.90
57390;DHT22;43217;52.694;6.214;2023-04-26T08:35:54;10.30;99.90
57390;DHT22;43217;52.694;6.214;2023-04-26T08:38:20;10.30;99.90
57390;DHT22;43217;52.694;6.214;2023-04-26T08:40:50;10.40;99.90
57390;DHT22;43217;52.694;6.214;2023-04-26T08:43:16;10.50;99.90
57390;DHT22;43217;52.694;6.214;2023-04-26T08:45:44;10.60;99.90
57390;DHT22;43217;52.694;6.214;2023-04-26T08:48:14;10.80;99.90
57390;DHT22;43217;52.694;6.214;2023-04-26T08:50:43;11.10;99.90
57390;DHT22;43217;52.694;6.214;2023-04-26T08:53:14;11.20;99.90
57390;DHT22;43217;52.694;6.214;2023-04-26T08:55:46;11.20;99.90
57390;DHT22;43217;52.694;6.214;2023-04-26T08:58:11;11.20;99.90
57390;DHT22;43217;52.694;6.214;2023-04-26T09:00:37;11.00;99.90
57390;DHT22;43217;52.694;6.214;2023-04-26T09:03:03;11.00;99.90
57390;DHT22;43217;52.694;6.214;2023-04-26T09:05:29;11.20;99.90
57390;DHT22;43217;52.694;6.214;2023-04-26T09:08:00;11.80;99.90
57390;DHT22;43217;52.694;6.214;2023-04-26T09:10:29;12.00;99.90
57390;DHT22;43217;52.694;6.214;2023-04-26T09:12:56;12.70;99.90
57390;DHT22;43217;52.694;6.214;2023-04-26T09:15:23;13.10;99.90
57390;DHT22;43217;52.694;6.214;2023-04-26T09:17:49;13.30;99.90
57390;DHT22;43217;52.694;6.214;2023-04-26T09:20:29;13.50;99.30
57390;DHT22;43217;52.694;6.214;2023-04-26T09:23:07;13.80;96.70
57390;DHT22;43217;52.694;6.214;2023-04-26T09:25:34;14.30;95.30
57390;DHT22;43217;52.694;6.214;2023-04-26T09:28:01;14.90;94.50
57390;DHT22;43217;52.694;6.214;2023-04-26T09:30:28;15.20;92.70
57390;DHT22;43217;52.694;6.214;2023-04-26T09:32:56;15.10;80.20
57390;DHT22;43217;52.694;6.214;2023-04-26T09:35:32;14.60;84.30
57390;DHT22;43217;52.694;6.214;2023-04-26T09:38:04;14.30;84.20
57390;DHT22;43217;52.694;6.214;2023-04-26T09:40:35;13.80;84.70
57390;DHT22;43217;52.694;6.214;2023-04-26T09:43:03;13.30;86.50
57390;DHT22;43217;52.694;6.214;2023-04-26T09:45:30;12.70;87.00
57390;DHT22;43217;52.694;6.214;2023-04-26T09:48:23;12.20;90.30
57390;DHT22;43217;52.694;6.214;2023-04-26T09:50:55;11.70;90.30
57390;DHT22;43217;52.694;6.214;2023-04-26T09:53:35;11.40;91.70
57390;DHT22;43217;52.694;6.214;2023-04-26T09:56:18;11.20;93.00
57390;DHT22;43217;52.694;6.214;2023-04-26T10:01:18;10.80;95.10
57390;DHT22;43217;52.694;6.214;2023-04-26T10:03:44;10.70;95.70
57390;DHT22;43217;52.694;6.214;2023-04-26T10:06:11;10.60;96.90
57390;DHT22;43217;52.694;6.214;2023-04-26T10:08:37;10.50;96.80
57390;DHT22;43217;52.694;6.214;2023-04-26T10:11:04;10.60;97.50
57390;DHT22;43217;52.694;6.214;2023-04-26T10:13:32;10.70;97.30
57390;DHT22;43217;52.694;6.214;2023-04-26T10:15:59;10.80;97.60
57390;DHT22;43217;52.694;6.214;2023-04-26T10:18:25;10.80;97.90
57390;DHT22;43217;52.694;6.214;2023-04-26T10:20:54;10.80;95.80
57390;DHT22;43217;52.694;6.214;2023-04-26T10:23:22;10.90;95.80
57390;DHT22;43217;52.694;6.214;2023-04-26T10:25:50;10.90;95.40
57390;DHT22;43217;52.694;6.214;2023-04-26T10:28:17;10.80;94.80
57390;DHT22;43217;52.694;6.214;2023-04-26T10:30:56;10.90;94.60
57390;DHT22;43217;52.694;6.214;2023-04-26T10:33:23;11.00;95.00
57390;DHT22;43217;52.694;6.214;2023-04-26T10:36:06;11.10;94.90
57390;DHT22;43217;52.694;6.214;2023-04-26T10:38:37;11.30;94.20
57390;DHT22;43217;52.694;6.214;2023-04-26T10:41:34;11.30;94.30
57390;DHT22;43217;52.694;6.214;2023-04-26T10:44:53;11.30;93.60
57390;DHT22;43217;52.694;6.214;2023-04-26T10:47:27;11.20;93.60
57390;DHT22;43217;52.694;6.214;2023-04-26T10:50:01;11.10;92.30
57390;DHT22;43217;52.694;6.214;2023-04-26T10:52:28;11.00;92.00
57390;DHT22;43217;52.694;6.214;2023-04-26T10:54:55;10.80;92.30
57390;DHT22;43217;52.694;6.214;2023-04-26T10:57:22;10.70;92.00
57390;DHT22;43217;52.694;6.214;2023-04-26T11:00:14;10.70;92.60
57390;DHT22;43217;52.694;6.214;2023-04-26T11:03:03;10.60;92.50
57390;DHT22;43217;52.694;6.214;2023-04-26T11:08:06;10.50;91.30
57390;DHT22;43217;52.694;6.214;2023-04-26T11:10:36;10.40;91.40
57390;DHT22;43217;52.694;6.214;2023-04-26T11:13:03;10.50;90.30
57390;DHT22;43217;52.694;6.214;2023-04-26T11:15:30;10.60;90.30
57390;DHT22;43217;52.694;6.214;2023-04-26T11:17:56;10.60;89.60
57390;DHT22;43217;52.694;6.214;2023-04-26T11:20:27;10.70;88.60
57390;DHT22;43217;52.694;6.214;2023-04-26T11:22:52;10.70;90.10
57390;DHT22;43217;52.694;6.214;2023-04-26T11:25:18;10.80;89.40
57390;DHT22;43217;52.694;6.214;2023-04-26T11:27:44;10.90;89.60
57390;DHT22;43217;52.694;6.214;2023-04-26T11:30:11;11.10;90.10
57390;DHT22;43217;52.694;6.214;2023-04-26T11:32:36;11.40;89.30
57390;DHT22;43217;52.694;6.214;2023-04-26T11:35:02;11.50;87.70
57390;DHT22;43217;52.694;6.214;2023-04-26T11:37:28;11.50;88.40
57390;DHT22;43217;52.694;6.214;2023-04-26T11:39:56;11.50;87.80
57390;DHT22;43217;52.694;6.214;2023-04-26T11:42:24;11.50;87.50
57390;DHT22;43217;52.694;6.214;2023-04-26T11:44:51;11.50;88.00
57390;DHT22;43217;52.694;6.214;2023-04-26T11:47:18;11.40;88.50
57390;DHT22;43217;52.694;6.214;2023-04-26T11:49:45;11.40;85.90
57390;DHT22;43217;52.694;6.214;2023-04-26T11:52:12;11.30;83.10
57390;DHT22;43217;52.694;6.214;2023-04-26T11:54:37;11.30;84.30
57390;DHT22;43217;52.694;6.214;2023-04-26T11:57:13;11.40;82.50
57390;DHT22;43217;52.694;6.214;2023-04-26T11:59:40;11.60;81.10
57390;DHT22;43217;52.694;6.214;2023-04-26T12:02:06;11.60;81.60
57390;DHT22;43217;52.694;6.214;2023-04-26T12:04:32;11.70;81.40
57390;DHT22;43217;52.694;6.214;2023-04-26T12:06:58;11.70;82.40
57390;DHT22;43217;52.694;6.214;2023-04-26T12:09:28;11.60;82.90
57390;DHT22;43217;52.694;6.214;2023-04-26T12:12:01;11.60;82.90
57390;DHT22;43217;52.694;6.214;2023-04-26T12:17:01;11.40;84.40
57390;DHT22;43217;52.694;6.214;2023-04-26T12:19:38;11.30;84.90
57390;DHT22;43217;52.694;6.214;2023-04-26T12:22:04;11.30;85.40
57390;DHT22;43217;52.694;6.214;2023-04-26T12:24:32;11.20;86.40
57390;DHT22;43217;52.694;6.214;2023-04-26T12:26:59;11.10;87.10
57390;DHT22;43217;52.694;6.214;2023-04-26T12:29:27;11.10;88.50
57390;DHT22;43217;52.694;6.214;2023-04-26T12:31:55;11.10;88.50
57390;DHT22;43217;52.694;6.214;2023-04-26T12:34:21;11.10;88.60
57390;DHT22;43217;52.694;6.214;2023-04-26T12:36:46;11.10;89.60
57390;DHT22;43217;52.694;6.214;2023-04-26T12:39:12;11.10;89.40
57390;DHT22;43217;52.694;6.214;2023-04-26T12:41:41;11.20;90.20
57390;DHT22;43217;52.694;6.214;2023-04-26T12:44:07;11.20;90.20
57390;DHT22;43217;52.694;6.214;2023-04-26T12:46:33;11.20;90.00
57390;DHT22;43217;52.694;6.214;2023-04-26T12:48:59;11.20;90.10
57390;DHT22;43217;52.694;6.214;2023-04-26T12:51:25;11.20;90.60
57390;DHT22;43217;52.694;6.214;2023-04-26T12:53:51;11.20;90.70
57390;DHT22;43217;52.694;6.214;2023-04-26T12:56:17;11.10;90.70
57390;DHT22;43217;52.694;6.214;2023-04-26T12:58:42;11.00;90.50
57390;DHT22;43217;52.694;6.214;2023-04-26T13:01:09;11.00;90.80
57390;DHT22;43217;52.694;6.214;2023-04-26T13:03:35;10.90;91.30
57390;DHT22;43217;52.694;6.214;2023-04-26T13:06:01;10.80;91.60
57390;DHT22;43217;52.694;6.214;2023-04-26T13:08:27;10.80;92.00
57390;DHT22;43217;52.694;6.214;2023-04-26T13:10:53;10.70;92.50
57390;DHT22;43217;52.694;6.214;2023-04-26T13:13:18;10.70;93.10
57390;DHT22;43217;52.694;6.214;2023-04-26T13:15:44;10.80;93.60
57390;DHT22;43217;52.694;6.214;2023-04-26T13:18:10;10.80;93.50
57390;DHT22;43217;52.694;6.214;2023-04-26T13:20:36;10.80;93.10
57390;DHT22;43217;52.694;6.214;2023-04-26T13:23:02;10.90;93.90
57390;DHT22;43217;52.694;6.214;2023-04-26T13:25:28;10.90;93.80
57390;DHT22;43217;52.694;6.214;2023-04-26T13:27:54;11.00;93.60
57390;DHT22;43217;52.694;6.214;2023-04-26T13:30:20;10.90;94.10
57390;DHT22;43217;52.694;6.214;2023-04-26T13:32:45;10.90;94.70
57390;DHT22;43217;52.694;6.214;2023-04-26T13:35:11;10.90;95.10
57390;DHT22;43217;52.694;6.214;2023-04-26T13:37:37;10.80;94.40
57390;DHT22;43217;52.694;6.214;2023-04-26T13:40:03;10.70;94.10
57390;DHT22;43217;52.694;6.214;2023-04-26T13:42:29;10.70;94.20
57390;DHT22;43217;52.694;6.214;2023-04-26T13:44:56;10.70;94.00
57390;DHT22;43217;52.694;6.214;2023-04-26T13:47:22;10.70;94.00
57390;DHT22;43217;52.694;6.214;2023-04-26T13:49:47;10.70;94.00
57390;DHT22;43217;52.694;6.214;2023-04-26T13:52:13;10.80;93.70
57390;DHT22;43217;52.694;6.214;2023-04-26T13:54:38;10.80;93.70
57390;DHT22;43217;52.694;6.214;2023-04-26T13:57:04;10.80;93.40
57390;DHT22;43217;52.694;6.214;2023-04-26T13:59:30;10.80;93.30
57390;DHT22;43217;52.694;6.214;2023-04-26T14:01:57;10.80;92.50
57390;DHT22;43217;52.694;6.214;2023-04-26T14:04:22;10.80;92.70
57390;DHT22;43217;52.694;6.214;2023-04-26T14:06:48;10.80;92.50
57390;DHT22;43217;52.694;6.214;2023-04-26T14:09:13;10.80;92.30
57390;DHT22;43217;52.694;6.214;2023-04-26T14:11:39;10.80;92.70
57390;DHT22;43217;52.694;6.214;2023-04-26T14:14:06;10.80;92.70
57390;DHT22;43217;52.694;6.214;2023-04-26T14:16:32;10.80;93.10
57390;DHT22;43217;52.694;6.214;2023-04-26T14:18:58;10.80;92.70
57390;DHT22;43217;52.694;6.214;2023-04-26T14:21:24;10.80;93.20
57390;DHT22;43217;52.694;6.214;2023-04-26T14:23:50;10.80;92.80
57390;DHT22;43217;52.694;6.214;2023-04-26T14:26:17;10.90;92.80
57390;DHT22;43217;52.694;6.214;2023-04-26T14:28:44;10.90;92.70
57390;DHT22;43217;52.694;6.214;2023-04-26T14:31:10;10.90;93.40
57390;DHT22;43217;52.694;6.214;2023-04-26T14:33:37;10.90;93.20
57390;DHT22;43217;52.694;6.214;2023-04-26T14:36:03;11.00;93.80
57390;DHT22;43217;52.694;6.214;2023-04-26T14:38:29;11.00;93.90
57390;DHT22;43217;52.694;6.214;2023-04-26T14:40:55;11.00;92.50
57390;DHT22;43217;52.694;6.214;2023-04-26T14:43:21;11.00;91.90
57390;DHT22;43217;52.694;6.214;2023-04-26T14:45:47;11.00;91.70
57390;DHT22;43217;52.694;6.214;2023-04-26T14:48:13;11.00;90.80
57390;DHT22;43217;52.694;6.214;2023-04-26T14:50:59;11.10;90.80
57390;DHT22;43217;52.694;6.214;2023-04-26T14:53:31;11.10;90.60
57390;DHT22;43217;52.694;6.214;2023-04-26T14:55:57;11.20;90.60
57390;DHT22;43217;52.694;6.214;2023-04-26T14:58:23;11.20;90.20
57390;DHT22;43217;52.694;6.214;2023-04-26T15:00:49;11.30;90.10
57390;DHT22;43217;52.694;6.214;2023-04-26T15:03:16;11.40;90.50
57390;DHT22;43217;52.694;6.214;2023-04-26T15:05:42;11.40;90.90
57390;DHT22;43217;52.694;6.214;2023-04-26T15:08:08;11.50;91.60
57390;DHT22;43217;52.694;6.214;2023-04-26T15:10:33;11.60;91.50
57390;DHT22;43217;52.694;6.214;2023-04-26T15:12:59;11.60;91.20
57390;DHT22;43217;52.694;6.214;2023-04-26T15:15:25;11.70;90.70
57390;DHT22;43217;52.694;6.214;2023-04-26T15:17:50;11.70;90.40
57390;DHT22;43217;52.694;6.214;2023-04-26T15:20:16;11.70;89.80
57390;DHT22;43217;52.694;6.214;2023-04-26T15:22:42;11.70;90.30
57390;DHT22;43217;52.694;6.214;2023-04-26T15:25:08;11.70;89.40
57390;DHT22;43217;52.694;6.214;2023-04-26T15:27:35;11.80;86.10
57390;DHT22;43217;52.694;6.214;2023-04-26T15:30:03;11.70;84.30
57390;DHT22;43217;52.694;6.214;2023-04-26T15:32:29;11.70;85.80
57390;DHT22;43217;52.694;6.214;2023-04-26T15:34:55;11.70;86.20
57390;DHT22;43217;52.694;6.214;2023-04-26T15:37:22;11.80;86.10
57390;DHT22;43217;52.694;6.214;2023-04-26T15:39:47;11.70;85.70
57390;DHT22;43217;52.694;6.214;2023-04-26T15:42:13;11.60;85.60
57390;DHT22;43217;52.694;6.214;2023-04-26T15:44:41;11.60;85.50